createdAt,value
2023-04-13T00:00:41.266Z,5.30
2023-04-13T00:03:12.847Z,5.50
2023-04-13T00:05:40.310Z,5.50
2023-04-13T00:08:08.252Z,5.50
2023-04-13T00:10:36.530Z,5.50
2023-04-13T00:13:05.064Z,5.60
2023-04-13T00:15:36.906Z,5.60
2023-04-13T00:18:04.474Z,5.50
2023-04-13T00:20:31.408Z,5.50
2023-04-13T00:22:58.417Z,5.50
2023-04-13T00:25:25.518Z,5.60
2023-04-13T00:27:55.490Z,5.60
2023-04-13T00:30:22.960Z,5.50
2023-04-13T00:32:50.016Z,5.50
2023-04-13T00:35:19.450Z,5.60
2023-04-13T00:37:49.934Z,5.60
2023-04-13T00:40:18.014Z,5.60
2023-04-13T00:42:45.525Z,5.60
2023-04-13T00:45:13.819Z,5.60
2023-04-13T00:47:43.475Z,5.60
2023-04-13T00:50:10.598Z,5.60
2023-04-13T00:52:41.076Z,5.50
2023-04-13T00:55:08.528Z,5.50
2023-04-13T00:57:36.623Z,5.50
2023-04-13T01:00:12.856Z,5.50
2023-04-13T01:02:42.438Z,5.50
2023-04-13T01:05:14.221Z,5.50
2023-04-13T01:08:09.328Z,5.60
2023-04-13T01:10:50.130Z,5.60
2023-04-13T01:13:21.360Z,5.60
2023-04-13T01:16:05.074Z,5.60
2023-04-13T01:18:40.379Z,5.60
2023-04-13T01:21:14.882Z,5.60
2023-04-13T01:24:18.149Z,5.60
2023-04-13T01:27:04.416Z,5.60
2023-04-13T01:29:32.569Z,5.50
2023-04-13T01:32:00.463Z,5.50
2023-04-13T01:34:30.540Z,5.50
2023-04-13T01:36:58.452Z,5.50
2023-04-13T01:39:25.569Z,5.40
2023-04-13T01:42:02.316Z,5.40
2023-04-13T01:44:33.404Z,5.40
2023-04-13T01:47:15.952Z,5.40
2023-04-13T01:49:59.887Z,5.40
2023-04-13T01:52:34.258Z,5.40
2023-04-13T01:55:04.907Z,5.40
2023-04-13T01:57:35.507Z,5.40
2023-04-13T02:00:10.990Z,5.40
2023-04-13T02:02:39.923Z,5.40
2023-04-13T02:05:09.610Z,5.40
2023-04-13T02:07:39.983Z,5.40
2023-04-13T02:10:07.984Z,5.40
2023-04-13T02:12:35.016Z,5.50
2023-04-13T02:15:01.989Z,5.40
2023-04-13T02:17:29.659Z,5.40
2023-04-13T02:19:57.661Z,5.30
2023-04-13T02:22:25.310Z,5.40
2023-04-13T02:24:52.209Z,5.30
2023-04-13T02:27:19.245Z,5.30
2023-04-13T02:29:46.426Z,5.30
2023-04-13T02:32:13.525Z,5.40
2023-04-13T02:34:41.639Z,5.30
2023-04-13T02:37:09.539Z,5.30
2023-04-13T02:39:37.297Z,5.30
2023-04-13T02:42:05.375Z,5.30
2023-04-13T02:44:34.018Z,5.30
2023-04-13T02:47:01.441Z,5.30
2023-04-13T02:49:28.524Z,5.30
2023-04-13T02:52:11.027Z,5.30
2023-04-13T02:54:57.015Z,5.30
2023-04-13T02:57:27.903Z,5.30
2023-04-13T03:00:02.216Z,5.30
2023-04-13T03:02:42.560Z,5.40
2023-04-13T03:05:09.811Z,5.40
2023-04-13T03:07:37.913Z,5.30
2023-04-13T03:10:05.597Z,5.30
2023-04-13T03:12:33.265Z,5.30
2023-04-13T03:15:02.591Z,5.30
2023-04-13T03:17:30.837Z,5.30
2023-04-13T03:19:58.324Z,5.30
2023-04-13T03:22:26.186Z,5.30
2023-04-13T03:24:53.618Z,5.30
2023-04-13T03:27:29.224Z,5.30
2023-04-13T03:29:56.299Z,5.30
2023-04-13T03:32:23.291Z,5.40
2023-04-13T03:34:57.200Z,5.30
2023-04-13T03:37:29.362Z,5.30
2023-04-13T03:39:59.580Z,5.20
2023-04-13T03:42:28.332Z,5.30
2023-04-13T03:44:58.490Z,5.30
2023-04-13T03:47:25.928Z,5.30
2023-04-13T03:49:53.008Z,5.30
2023-04-13T03:52:19.867Z,5.30
2023-04-13T03:54:53.834Z,5.30
2023-04-13T03:57:22.637Z,5.40
2023-04-13T03:59:50.382Z,5.40
2023-04-13T04:02:26.728Z,5.40
2023-04-13T04:04:53.791Z,5.40
2023-04-13T04:07:23.770Z,5.40
2023-04-13T04:09:51.391Z,5.50
2023-04-13T04:12:21.126Z,5.40
2023-04-13T04:14:47.971Z,5.40
2023-04-13T04:17:19.583Z,5.40
2023-04-13T04:19:46.658Z,5.50
2023-04-13T04:22:14.507Z,5.40
2023-04-13T04:24:42.503Z,5.40
2023-04-13T04:27:09.607Z,5.40
2023-04-13T04:29:36.567Z,5.40
2023-04-13T04:32:15.844Z,5.40
2023-04-13T04:34:44.046Z,5.40
2023-04-13T04:37:20.587Z,5.40
2023-04-13T04:40:00.132Z,5.40
2023-04-13T04:42:27.498Z,5.40
2023-04-13T04:44:56.507Z,5.30
2023-04-13T04:47:25.838Z,5.40
2023-04-13T04:50:10.154Z,5.40
2023-04-13T04:52:40.683Z,5.40
2023-04-13T04:55:09.166Z,5.40
2023-04-13T04:57:39.325Z,5.40
2023-04-13T05:00:10.828Z,5.40
2023-04-13T05:02:40.047Z,5.50
2023-04-13T05:05:11.727Z,5.50
2023-04-13T05:07:39.417Z,5.50
2023-04-13T05:10:09.287Z,5.50
2023-04-13T05:12:40.453Z,5.50
2023-04-13T05:15:09.208Z,5.50
2023-04-13T05:17:37.349Z,5.50
2023-04-13T05:20:07.057Z,5.50
2023-04-13T05:22:54.294Z,5.40
2023-04-13T05:25:21.570Z,5.40
2023-04-13T05:27:48.410Z,5.40
2023-04-13T05:30:15.302Z,5.40
2023-04-13T05:32:44.043Z,5.40
2023-04-13T05:35:11.711Z,5.40
2023-04-13T05:37:40.128Z,5.40
2023-04-13T05:40:14.537Z,5.40
2023-04-13T05:42:43.505Z,5.40
2023-04-13T05:45:13.221Z,5.40
2023-04-13T05:47:55.919Z,5.40
2023-04-13T05:50:23.863Z,5.40
2023-04-13T05:52:50.816Z,5.40
2023-04-13T05:55:20.120Z,5.40
2023-04-13T05:57:54.205Z,5.50
2023-04-13T06:00:21.706Z,5.40
2023-04-13T06:03:01.421Z,5.40
2023-04-13T06:05:30.325Z,5.40
2023-04-13T06:07:57.221Z,5.40
2023-04-13T06:10:24.195Z,5.50
2023-04-13T06:12:52.652Z,5.50
2023-04-13T06:15:20.770Z,5.50
2023-04-13T06:17:51.565Z,5.50
2023-04-13T06:20:20.295Z,5.50
2023-04-13T06:22:47.895Z,5.50
2023-04-13T06:25:16.511Z,5.50
2023-04-13T06:27:48.623Z,5.50
2023-04-13T06:30:16.350Z,5.50
2023-04-13T06:32:44.305Z,5.60
2023-04-13T06:35:12.636Z,5.60
2023-04-13T06:37:45.488Z,5.60
2023-04-13T06:40:18.711Z,5.60
2023-04-13T06:42:57.964Z,5.60
2023-04-13T06:45:59.488Z,5.50
2023-04-13T06:48:29.218Z,5.50
2023-04-13T06:50:59.807Z,5.50
2023-04-13T06:53:28.108Z,5.40
2023-04-13T06:55:54.942Z,5.40
2023-04-13T06:58:23.318Z,5.40
2023-04-13T07:00:50.675Z,5.40
2023-04-13T07:03:18.004Z,5.40
2023-04-13T07:05:45.465Z,5.50
2023-04-13T07:08:16.000Z,5.40
2023-04-13T07:10:45.048Z,5.50
2023-04-13T07:13:19.396Z,5.50
2023-04-13T07:15:47.230Z,5.50
2023-04-13T07:18:14.166Z,5.60
2023-04-13T07:20:41.732Z,5.60
2023-04-13T07:23:09.560Z,5.60
2023-04-13T07:25:37.381Z,5.60
2023-04-13T07:28:07.257Z,5.60
2023-04-13T07:30:34.138Z,5.60
2023-04-13T07:33:01.582Z,5.60
2023-04-13T07:35:28.896Z,5.60
2023-04-13T07:37:58.611Z,5.60
2023-04-13T07:40:25.774Z,5.60
2023-04-13T07:42:56.356Z,5.60
2023-04-13T07:45:24.171Z,5.60
2023-04-13T07:47:53.521Z,5.70
2023-04-13T07:50:20.745Z,5.60
2023-04-13T07:52:47.651Z,5.70
2023-04-13T07:55:16.863Z,5.60
2023-04-13T07:57:47.743Z,5.60
2023-04-13T08:00:15.468Z,5.60
2023-04-13T08:02:46.206Z,5.60
2023-04-13T08:05:18.531Z,5.60
2023-04-13T08:07:46.883Z,5.60
2023-04-13T08:10:15.498Z,5.70
2023-04-13T08:12:43.238Z,5.70
2023-04-13T08:15:11.074Z,5.70
2023-04-13T08:17:38.543Z,5.60
2023-04-13T08:20:08.316Z,5.60
2023-04-13T08:22:36.895Z,5.70
2023-04-13T08:25:07.211Z,5.70
2023-04-13T08:27:34.474Z,5.70
2023-04-13T08:30:02.401Z,5.70
2023-04-13T08:32:37.569Z,5.80
2023-04-13T08:35:07.669Z,5.80
2023-04-13T08:37:35.136Z,5.90
2023-04-13T08:40:07.429Z,5.90
2023-04-13T08:42:36.647Z,5.90
2023-04-13T08:45:04.791Z,5.90
2023-04-13T08:47:31.805Z,5.90
2023-04-13T08:50:00.413Z,5.90
2023-04-13T08:52:48.003Z,5.90
2023-04-13T08:55:17.921Z,5.90
2023-04-13T08:57:51.163Z,5.90
2023-04-13T09:00:19.501Z,6.00
2023-04-13T09:03:00.303Z,6.10
2023-04-13T09:05:34.518Z,6.20
2023-04-13T09:08:07.871Z,6.20
2023-04-13T09:10:36.696Z,6.20
2023-04-13T09:13:03.862Z,6.20
2023-04-13T09:15:32.507Z,6.20
2023-04-13T09:18:12.812Z,6.30
2023-04-13T09:21:00.699Z,6.40
2023-04-13T09:23:27.888Z,6.40
2023-04-13T09:26:08.684Z,6.40
2023-04-13T09:28:47.025Z,6.50
2023-04-13T09:31:14.204Z,6.50
2023-04-13T09:33:49.162Z,6.50
2023-04-13T09:36:18.926Z,6.60
2023-04-13T09:38:52.224Z,6.70
2023-04-13T09:41:39.054Z,6.80
2023-04-13T09:44:24.554Z,6.80
2023-04-13T09:46:59.378Z,6.80
2023-04-13T09:49:27.111Z,6.70
2023-04-13T09:51:54.960Z,6.80
2023-04-13T09:54:26.457Z,6.80
2023-04-13T09:56:56.305Z,6.70
2023-04-13T09:59:27.257Z,6.70
2023-04-13T10:01:55.377Z,6.70
2023-04-13T10:04:22.344Z,6.80
2023-04-13T10:06:49.302Z,7.00
2023-04-13T10:09:16.473Z,7.10
2023-04-13T10:11:50.284Z,7.10
2023-04-13T10:14:24.728Z,7.10
2023-04-13T10:17:07.640Z,7.10
2023-04-13T10:19:49.800Z,7.10
2023-04-13T10:22:17.601Z,7.10
2023-04-13T10:24:44.840Z,7.10
2023-04-13T10:27:22.406Z,7.10
2023-04-13T10:29:50.118Z,6.90
2023-04-13T10:32:22.855Z,6.80
2023-04-13T10:34:50.244Z,6.80
2023-04-13T10:37:20.041Z,6.70
2023-04-13T10:39:48.729Z,6.60
2023-04-13T10:42:17.887Z,6.60
2023-04-13T10:44:47.510Z,6.60
2023-04-13T10:47:16.416Z,6.50
2023-04-13T10:49:44.950Z,6.40
2023-04-13T10:52:12.362Z,6.40
2023-04-13T10:54:40.570Z,6.40
2023-04-13T10:57:09.100Z,6.40
2023-04-13T10:59:57.884Z,6.30
2023-04-13T11:02:30.650Z,6.30
2023-04-13T11:04:59.036Z,6.40
2023-04-13T11:07:28.849Z,6.40
2023-04-13T11:12:30.113Z,6.40
2023-04-13T11:14:57.053Z,6.40
2023-04-13T11:17:24.105Z,6.40
2023-04-13T11:19:53.477Z,6.50
2023-04-13T11:22:27.550Z,6.50
2023-04-13T11:25:09.054Z,6.50
2023-04-13T11:27:37.980Z,6.50
2023-04-13T11:30:07.413Z,6.50
2023-04-13T11:32:34.658Z,6.50
2023-04-13T11:35:08.491Z,6.60
2023-04-13T11:37:51.081Z,6.60
2023-04-13T11:40:26.098Z,6.60
2023-04-13T11:42:58.273Z,6.70
2023-04-13T11:45:26.958Z,6.70
2023-04-13T11:47:58.130Z,6.60
2023-04-13T11:50:26.104Z,6.70
2023-04-13T11:52:57.322Z,6.70
2023-04-13T11:55:25.705Z,6.70
2023-04-13T11:57:55.071Z,6.80
2023-04-13T12:00:24.744Z,6.80
2023-04-13T12:03:01.879Z,6.90
2023-04-13T12:05:33.153Z,6.90
2023-04-13T12:08:03.089Z,6.90
2023-04-13T12:10:42.447Z,6.90
2023-04-13T12:16:08.530Z,6.90
2023-04-13T12:18:57.317Z,6.90
2023-04-13T12:21:26.377Z,6.80
2023-04-13T12:24:01.370Z,6.80
2023-04-13T12:27:16.302Z,6.80
2023-04-13T12:29:22.413Z,6.80
2023-04-13T12:31:49.344Z,6.70
2023-04-13T12:34:16.206Z,6.70
2023-04-13T12:36:43.432Z,6.70
2023-04-13T12:39:11.175Z,6.70
2023-04-13T12:41:38.086Z,6.70
2023-04-13T12:44:05.085Z,6.80
2023-04-13T12:46:32.449Z,6.80
2023-04-13T12:48:59.717Z,6.90
2023-04-13T12:51:26.818Z,7.00
2023-04-13T12:53:53.674Z,7.00
2023-04-13T12:56:20.437Z,7.10
2023-04-13T12:58:47.274Z,7.00
2023-04-13T13:01:14.699Z,7.10
2023-04-13T13:03:42.085Z,7.00
2023-04-13T13:06:09.220Z,7.00
2023-04-13T13:08:40.013Z,7.00
2023-04-13T13:11:08.436Z,7.00
2023-04-13T13:13:35.705Z,7.00
2023-04-13T13:16:02.799Z,7.00
2023-04-13T13:18:38.988Z,7.00
2023-04-13T13:21:13.873Z,7.00
2023-04-13T13:23:40.856Z,7.00
2023-04-13T13:26:23.217Z,7.00
2023-04-13T13:28:52.054Z,7.00
2023-04-13T13:31:19.615Z,7.00
2023-04-13T13:33:46.868Z,7.00
2023-04-13T13:36:14.440Z,7.00
2023-04-13T13:38:43.184Z,7.00
2023-04-13T13:41:10.902Z,6.90
2023-04-13T13:43:38.699Z,6.90
2023-04-13T13:46:06.113Z,6.90
2023-04-13T13:48:34.933Z,6.90
2023-04-13T13:51:16.100Z,6.80
2023-04-13T13:53:43.314Z,6.90
2023-04-13T13:56:10.234Z,6.90
2023-04-13T13:58:37.201Z,6.80
2023-04-13T14:01:05.543Z,6.80
2023-04-13T14:03:32.860Z,6.90
2023-04-13T14:05:59.924Z,6.90
2023-04-13T14:08:26.816Z,7.00
2023-04-13T14:10:55.154Z,6.90
2023-04-13T14:13:22.274Z,7.00
2023-04-13T14:15:49.183Z,7.10
2023-04-13T14:18:16.351Z,7.10
2023-04-13T14:20:43.694Z,7.20
2023-04-13T14:23:10.886Z,7.30
2023-04-13T14:25:41.074Z,7.50
2023-04-13T14:28:09.406Z,7.60
2023-04-13T14:30:36.635Z,7.80
2023-04-13T14:33:04.316Z,7.90
2023-04-13T14:35:31.374Z,8.00
2023-04-13T14:37:58.183Z,8.00
2023-04-13T14:40:27.617Z,8.00
2023-04-13T14:42:54.549Z,8.10
2023-04-13T14:45:21.746Z,8.20
2023-04-13T14:47:49.036Z,8.20
2023-04-13T14:50:16.463Z,8.20
2023-04-13T14:52:44.787Z,8.20
2023-04-13T14:55:12.013Z,8.20
2023-04-13T14:57:39.245Z,8.20
2023-04-13T15:00:15.890Z,8.00
2023-04-13T15:02:42.920Z,7.80
2023-04-13T15:05:10.160Z,7.60
2023-04-13T15:07:37.044Z,7.50
2023-04-13T15:10:07.440Z,7.40
2023-04-13T15:12:35.058Z,7.40
2023-04-13T15:15:02.085Z,7.40
2023-04-13T15:17:29.986Z,7.40
2023-04-13T15:19:57.010Z,7.30
2023-04-13T15:22:24.223Z,7.30
2023-04-13T15:24:51.307Z,7.20
2023-04-13T15:27:18.276Z,7.10
2023-04-13T15:29:45.228Z,7.10
2023-04-13T15:32:12.121Z,7.00
2023-04-13T15:34:40.512Z,7.00
2023-04-13T15:37:07.295Z,7.00
2023-04-13T15:39:34.203Z,7.10
2023-04-13T15:42:02.259Z,7.10
2023-04-13T15:44:29.190Z,7.20
2023-04-13T15:46:56.106Z,7.20
2023-04-13T15:49:22.996Z,7.20
2023-04-13T15:51:49.868Z,7.10
2023-04-13T15:54:16.728Z,7.10
2023-04-13T15:56:44.279Z,7.10
2023-04-13T15:59:11.363Z,7.00
2023-04-13T16:01:45.297Z,7.10
2023-04-13T16:04:13.101Z,7.10
2023-04-13T16:06:40.622Z,7.20
2023-04-13T16:09:10.058Z,7.30
2023-04-13T16:11:39.841Z,7.50
2023-04-13T16:14:09.926Z,7.50
2023-04-13T16:16:47.096Z,7.60
2023-04-13T16:19:19.047Z,7.60
2023-04-13T16:21:47.018Z,7.70
2023-04-13T16:24:13.927Z,7.70
2023-04-13T16:26:40.895Z,7.90
2023-04-13T16:29:08.212Z,8.00
2023-04-13T16:31:35.623Z,8.00
2023-04-13T16:34:11.700Z,7.90
2023-04-13T16:36:45.337Z,7.90
2023-04-13T16:39:13.218Z,7.90
2023-04-13T16:41:40.275Z,7.80
2023-04-13T16:44:07.235Z,7.80
2023-04-13T16:46:34.636Z,7.70
2023-04-13T16:49:01.822Z,7.70
2023-04-13T16:51:31.274Z,7.70
2023-04-13T16:53:58.138Z,7.80
2023-04-13T16:56:29.394Z,7.90
2023-04-13T16:58:56.449Z,7.90
2023-04-13T17:01:25.257Z,7.80
2023-04-13T17:03:53.209Z,7.80
2023-04-13T17:06:21.126Z,7.70
2023-04-13T17:08:48.855Z,7.70
2023-04-13T17:11:16.006Z,7.60
2023-04-13T17:13:43.015Z,7.50
2023-04-13T17:16:10.286Z,7.50
2023-04-13T17:18:37.272Z,7.40
2023-04-13T17:21:04.160Z,7.40
2023-04-13T17:23:31.541Z,7.40
2023-04-13T17:25:58.420Z,7.30
2023-04-13T17:28:27.131Z,7.30
2023-04-13T17:30:54.434Z,7.30
2023-04-13T17:33:21.324Z,7.40
2023-04-13T17:35:52.172Z,7.50
2023-04-13T17:38:19.074Z,7.50
2023-04-13T17:40:46.200Z,7.50
2023-04-13T17:43:13.123Z,7.40
2023-04-13T17:45:40.750Z,7.50
2023-04-13T17:48:07.977Z,7.40
2023-04-13T17:50:34.858Z,7.40
2023-04-13T17:53:04.150Z,7.40
2023-04-13T17:55:31.800Z,7.40
2023-04-13T17:57:58.609Z,7.40
2023-04-13T18:00:27.786Z,7.40
2023-04-13T18:02:55.162Z,7.30
2023-04-13T18:05:22.441Z,7.20
2023-04-13T18:07:49.489Z,7.10
2023-04-13T18:10:16.526Z,6.90
2023-04-13T18:12:43.529Z,6.90
2023-04-13T18:15:10.801Z,6.80
2023-04-13T18:17:38.613Z,6.70
2023-04-13T18:20:06.437Z,6.70
2023-04-13T18:22:34.866Z,6.70
2023-04-13T18:25:01.834Z,6.70
2023-04-13T18:27:29.359Z,6.70
2023-04-13T18:29:56.733Z,6.70
2023-04-13T18:32:23.914Z,6.70
2023-04-13T18:34:50.765Z,6.60
2023-04-13T18:37:17.724Z,6.50
2023-04-13T18:39:45.130Z,6.40
2023-04-13T18:42:12.232Z,6.40
2023-04-13T18:44:39.176Z,6.30
2023-04-13T18:47:06.526Z,6.20
2023-04-13T18:49:33.361Z,6.20
2023-04-13T18:52:00.428Z,6.20
2023-04-13T18:54:27.341Z,6.10
2023-04-13T18:56:54.174Z,6.10
2023-04-13T18:59:21.098Z,6.00
2023-04-13T19:01:48.155Z,6.00
2023-04-13T19:04:15.233Z,6.00
2023-04-13T19:06:42.130Z,6.00
2023-04-13T19:09:09.058Z,5.90
2023-04-13T19:11:47.778Z,5.90
2023-04-13T19:14:14.862Z,5.80
2023-04-13T19:16:42.054Z,5.80
2023-04-13T19:19:09.159Z,5.80
2023-04-13T19:21:36.024Z,5.80
2023-04-13T19:24:02.988Z,5.80
2023-04-13T19:26:30.523Z,5.70
2023-04-13T19:28:57.447Z,5.70
2023-04-13T19:31:24.489Z,5.80
2023-04-13T19:33:52.977Z,5.70
2023-04-13T19:36:20.026Z,5.60
2023-04-13T19:38:47.173Z,5.60
2023-04-13T19:41:14.110Z,5.60
2023-04-13T19:43:41.188Z,5.60
2023-04-13T19:46:08.196Z,5.60
2023-04-13T19:48:35.062Z,5.60
2023-04-13T19:51:02.107Z,5.60
2023-04-13T19:53:29.002Z,5.60
2023-04-13T19:55:57.286Z,5.60
2023-04-13T19:58:24.092Z,5.60
2023-04-13T20:00:51.013Z,5.60
2023-04-13T20:03:20.551Z,5.70
2023-04-13T20:05:47.923Z,5.70
2023-04-13T20:08:16.490Z,5.70
2023-04-13T20:10:43.793Z,5.70
2023-04-13T20:13:11.107Z,5.60
2023-04-13T20:15:38.394Z,5.60
2023-04-13T20:18:07.260Z,5.60
2023-04-13T20:20:36.496Z,5.70
2023-04-13T20:23:04.393Z,5.70
2023-04-13T20:25:31.300Z,5.60
2023-04-13T20:27:58.411Z,5.60
2023-04-13T20:30:25.733Z,5.50
2023-04-13T20:32:52.577Z,5.50
2023-04-13T20:35:20.058Z,5.50
2023-04-13T20:37:47.368Z,5.50
2023-04-13T20:40:14.381Z,5.40
2023-04-13T20:42:41.849Z,5.40
2023-04-13T20:45:10.943Z,5.30
2023-04-13T20:47:42.170Z,5.20
2023-04-13T20:50:10.507Z,5.10
2023-04-13T20:52:37.627Z,5.10
2023-04-13T20:55:04.734Z,5.10
2023-04-13T20:57:31.843Z,5.10
2023-04-13T20:59:58.689Z,4.90
2023-04-13T21:02:25.729Z,4.80
2023-04-13T21:04:53.930Z,4.80
2023-04-13T21:07:22.340Z,4.70
2023-04-13T21:09:49.186Z,4.70
2023-04-13T21:12:17.039Z,4.60
2023-04-13T21:14:43.958Z,4.60
2023-04-13T21:17:11.788Z,4.70
2023-04-13T21:19:38.761Z,4.70
2023-04-13T21:22:06.126Z,4.70
2023-04-13T21:24:33.838Z,4.70
2023-04-13T21:27:01.533Z,4.60
2023-04-13T21:29:28.389Z,4.60
2023-04-13T21:31:55.542Z,4.60
2023-04-13T21:34:22.632Z,4.70
2023-04-13T21:36:51.697Z,4.80
2023-04-13T21:39:18.783Z,4.90
2023-04-13T21:41:45.864Z,4.90
2023-04-13T21:44:28.383Z,5.00
2023-04-13T21:46:56.846Z,5.00
2023-04-13T21:49:23.798Z,5.00
2023-04-13T21:51:50.860Z,4.90
2023-04-13T21:54:17.713Z,5.00
2023-04-13T21:56:44.733Z,5.00
2023-04-13T21:59:11.575Z,5.00
2023-04-13T22:01:38.450Z,5.00
2023-04-13T22:04:05.561Z,5.00
2023-04-13T22:06:32.762Z,5.00
2023-04-13T22:08:59.840Z,5.00
2023-04-13T22:11:26.858Z,4.90
2023-04-13T22:13:53.672Z,4.90
2023-04-13T22:16:20.719Z,4.90
2023-04-13T22:18:47.761Z,4.90
2023-04-13T22:21:14.637Z,4.80
2023-04-13T22:23:41.867Z,4.90
2023-04-13T22:26:08.838Z,4.80
2023-04-13T22:28:35.657Z,4.80
2023-04-13T22:31:08.071Z,4.80
2023-04-13T22:33:38.407Z,4.80
2023-04-13T22:36:06.612Z,4.80
2023-04-13T22:38:33.683Z,4.80
2023-04-13T22:41:06.375Z,4.80
2023-04-13T22:43:33.232Z,4.80
2023-04-13T22:46:00.849Z,4.80
2023-04-13T22:48:29.179Z,4.80
2023-04-13T22:50:57.643Z,4.80
2023-04-13T22:53:25.900Z,4.90
2023-04-13T22:55:53.217Z,5.00
2023-04-13T22:58:20.138Z,5.00
2023-04-13T23:00:46.934Z,5.00
2023-04-13T23:03:14.081Z,4.90
2023-04-13T23:05:41.093Z,4.90
2023-04-13T23:08:07.962Z,4.80
2023-04-13T23:10:34.789Z,4.70
2023-04-13T23:13:01.787Z,4.80
2023-04-13T23:15:28.622Z,4.80
2023-04-13T23:17:56.292Z,4.80
2023-04-13T23:20:23.993Z,4.80
2023-04-13T23:22:51.107Z,4.80
2023-04-13T23:25:17.902Z,4.70
2023-04-13T23:27:44.829Z,4.70
2023-04-13T23:30:12.200Z,4.60
2023-04-13T23:32:39.138Z,4.60
2023-04-13T23:35:06.670Z,4.80
2023-04-13T23:37:33.528Z,4.80
2023-04-13T23:40:00.499Z,4.80
2023-04-13T23:42:28.076Z,4.70
2023-04-13T23:44:54.876Z,4.70
2023-04-13T23:47:22.327Z,4.70
2023-04-13T23:49:50.802Z,4.70
2023-04-13T23:52:17.714Z,4.70
2023-04-13T23:54:44.571Z,4.70
2023-04-13T23:57:13.007Z,4.70
2023-04-13T23:59:39.928Z,4.60
